Time;durP1;ratioP1;P1;durP2;ratioP2;P2;SDS_P1;SDS_P2;PMS_P1;PMS_P2;Temp;Humidity;BMP_temperature;BMP_pressure;BME280_temperature;BME280_humidity;BME280_pressure;Samples;Min_cycle;Max_cycle;Signal;HPM_P1;HPM_P2
2022/04/11 00:00:45;;;;;;;14.50;10.90;;;8.70;99.90;;;8.91;61.71;101755.44;5076109;28;20098;-64
2022/04/11 00:03:14;;;;;;;18.20;11.30;;;8.70;99.90;;;8.98;61.48;101751.19;5075972;28;20045;-64
2022/04/11 00:05:43;;;;;;;17.88;10.57;;;8.80;99.90;;;8.65;62.24;101737.41;5075912;28;20390;-64
2022/04/11 00:08:11;;;;;;;15.18;10.50;;;8.60;99.90;;;8.66;62.73;101737.44;5075335;28;20129;-64
2022/04/11 00:10:40;;;;;;;15.63;10.57;;;8.50;99.90;;;8.73;62.64;101741.94;5057894;28;20060;-64
2022/04/11 00:13:09;;;;;;;17.02;10.85;;;8.50;99.90;;;8.59;63.23;101732.03;5057802;28;20106;-64
2022/04/11 00:15:39;;;;;;;15.77;11.02;;;8.50;99.90;;;8.58;63.58;101738.16;5075761;28;20037;-64
2022/04/11 00:18:09;;;;;;;16.65;11.45;;;8.40;99.90;;;8.56;63.74;101730.22;5075705;28;20041;-64
2022/04/11 00:20:37;;;;;;;18.42;10.98;;;8.40;99.90;;;8.60;63.60;101739.06;5075369;28;20106;-64
2022/04/11 00:23:07;;;;;;;16.50;11.27;;;8.40;99.90;;;8.50;63.79;101705.47;5074325;28;20073;-64
2022/04/11 00:25:35;;;;;;;23.63;12.13;;;8.40;99.90;;;8.79;63.36;101742.03;5057566;28;20168;-65
2022/04/11 00:28:04;;;;;;;18.38;11.60;;;8.60;99.90;;;8.79;63.18;101735.88;5075404;28;20128;-64
2022/04/11 00:30:34;;;;;;;22.52;12.15;;;8.60;99.90;;;8.85;63.30;101720.16;5075422;28;20040;-64
2022/04/11 00:33:02;;;;;;;21.42;11.75;;;8.70;99.90;;;9.05;62.92;101740.75;5057395;28;20056;-64
2022/04/11 00:35:31;;;;;;;18.30;11.25;;;8.80;99.90;;;9.24;62.44;101731.34;5075283;28;20045;-65
2022/04/11 00:38:00;;;;;;;23.27;11.27;;;9.00;99.90;;;9.51;61.98;101744.03;5057405;28;20131;-64
2022/04/11 00:40:28;;;;;;;20.05;11.77;;;9.20;99.90;;;9.70;61.39;101739.03;5075327;28;20040;-64
2022/04/11 00:42:57;;;;;;;18.25;11.23;;;9.40;99.90;;;9.69;60.99;101716.13;5075264;28;20044;-65
2022/04/11 00:45:25;;;;;;;19.45;11.30;;;9.60;99.90;;;9.96;60.72;101721.75;5075164;28;20040;-64
2022/04/11 00:47:55;;;;;;;15.55;11.30;;;9.70;99.90;;;10.08;60.02;101723.66;5057108;28;20044;-64
2022/04/11 00:50:24;;;;;;;18.17;11.80;;;9.90;99.90;;;10.23;59.72;101736.16;5075036;28;20044;-64
2022/04/11 00:52:55;;;;;;;19.73;12.15;;;10.00;99.90;;;10.32;59.15;101725.69;5075025;28;20068;-64
2022/04/11 00:55:25;;;;;;;15.88;11.43;;;10.10;99.90;;;10.47;59.21;101731.16;5074733;28;20382;-65
2022/04/11 00:57:55;;;;;;;18.33;11.07;;;10.30;99.90;;;9.92;58.66;101629.19;5075240;28;20078;-64
2022/04/11 01:00:23;;;;;;;18.23;12.02;;;10.30;99.90;;;10.61;58.35;101730.38;5075060;28;20056;-64
2022/04/11 01:02:54;;;;;;;22.00;11.68;;;10.40;99.90;;;10.67;57.97;101729.56;5074708;28;20135;-64
2022/04/11 01:05:23;;;;;;;16.83;12.68;;;10.40;99.90;;;10.64;58.09;101729.53;5074451;28;20041;-64
2022/04/11 01:07:52;;;;;;;15.73;11.88;;;10.40;99.90;;;10.60;57.91;101723.34;5056707;28;20128;-64
2022/04/11 01:10:20;;;;;;;19.50;12.18;;;10.40;99.90;;;10.64;58.36;101727.78;5056672;28;20056;-64
2022/04/11 01:12:50;;;;;;;22.88;12.65;;;10.40;99.90;;;10.64;58.04;101713.66;5056635;28;20072;-64
2022/04/11 01:15:18;;;;;;;21.50;12.60;;;10.50;99.90;;;10.67;58.08;101719.88;5074253;28;20070;-64
2022/04/11 01:17:47;;;;;;;18.85;12.98;;;10.50;99.90;;;10.68;58.47;101710.19;5073219;28;20494;-65
2022/04/11 01:20:17;;;;;;;17.75;11.82;;;10.50;99.90;;;10.58;57.94;101688.03;5056535;28;20367;-65
2022/04/11 01:22:48;;;;;;;16.77;12.30;;;10.50;99.90;;;10.72;58.02;101711.97;5056630;28;20173;-65
2022/04/11 01:25:20;;;;;;;16.58;12.00;;;10.50;99.90;;;10.78;57.79;101706.75;5056396;28;20143;-65
2022/04/11 01:27:50;;;;;;;18.63;12.20;;;10.50;99.90;;;10.74;58.00;101711.09;5056343;28;20054;-65
2022/04/11 01:30:19;;;;;;;18.50;12.60;;;10.50;99.90;;;10.64;57.96;101717.22;5074256;28;20040;-64
2022/04/11 01:32:48;;;;;;;16.17;12.13;;;10.50;99.90;;;10.65;57.94;101708.38;5055984;28;20048;-64
2022/04/11 01:35:21;;;;;;;18.97;12.50;;;10.40;99.90;;;10.65;58.09;101707.47;5056257;28;20052;-64
2022/04/11 01:37:53;;;;;;;16.50;11.63;;;10.40;99.90;;;10.66;57.83;101701.34;5073927;28;20070;-64
2022/04/11 01:40:22;;;;;;;18.70;12.45;;;10.40;99.90;;;10.64;58.16;101697.78;5055885;28;20056;-64
2022/04/11 01:42:50;;;;;;;17.17;12.80;;;10.40;99.90;;;10.64;58.33;101703.09;5056088;28;20532;-64
2022/04/11 01:45:19;;;;;;;24.65;13.25;;;10.50;99.90;;;10.66;58.04;101701.34;5056086;28;20494;-64
2022/04/11 01:47:48;;;;;;;18.02;12.60;;;10.50;99.90;;;10.58;58.24;101705.66;5072642;28;20047;-64
2022/04/11 01:50:17;;;;;;;20.38;12.98;;;10.40;99.90;;;10.61;58.66;101697.75;5072746;28;20045;-64
2022/04/11 01:52:46;;;;;;;19.75;12.43;;;10.40;99.90;;;10.66;58.31;101698.69;5072534;28;20045;-64
2022/04/11 01:55:16;;;;;;;22.77;12.95;;;10.40;99.90;;;10.68;58.16;101704.88;5055923;28;20054;-63
2022/04/11 01:57:48;;;;;;;18.88;12.50;;;10.40;99.90;;;10.67;58.19;101703.09;5055930;28;20045;-64
2022/04/11 02:00:17;;;;;;;22.50;13.50;;;10.40;99.90;;;10.57;58.24;101693.28;5055840;28;20044;-64
2022/04/11 02:02:46;;;;;;;21.52;12.73;;;10.40;99.90;;;10.64;58.26;101695.16;5055786;28;20036;-64
2022/04/11 02:05:15;;;;;;;19.90;13.02;;;10.40;99.90;;;10.63;58.79;101701.28;5072413;28;20106;-64
2022/04/11 02:07:44;;;;;;;19.00;12.35;;;10.30;99.90;;;10.53;58.57;101697.69;5055637;28;20053;-64
2022/04/11 02:10:12;;;;;;;19.75;13.32;;;10.40;99.90;;;10.49;58.43;101705.59;5073240;28;20041;-64
2022/04/11 02:12:42;;;;;;;19.02;12.80;;;10.30;99.90;;;10.61;58.33;101697.75;5073466;28;20103;-64
2022/04/11 02:15:11;;;;;;;22.90;13.05;;;10.40;99.90;;;10.59;58.29;101705.69;5073540;28;20059;-64
2022/04/11 02:17:39;;;;;;;21.55;13.18;;;10.30;99.90;;;10.54;58.16;101703.88;5072777;28;20064;-64
2022/04/11 02:20:11;;;;;;;19.45;13.13;;;10.40;99.90;;;10.47;58.64;101700.25;5055517;28;20494;-64
2022/04/11 02:22:51;;;;;;;18.52;13.38;;;10.30;99.90;;;10.39;58.40;101685.22;5055467;28;20070;-64
2022/04/11 02:25:21;;;;;;;19.65;13.50;;;10.30;99.90;;;10.32;58.54;101667.50;5073437;28;20139;-64
2022/04/11 02:27:52;;;;;;;;;;;10.20;99.90;;;10.44;58.36;101700.25;5055876;28;20049;-64
2022/04/11 02:30:22;;;;;;;18.92;12.55;;;10.30;99.90;;;10.45;58.59;101707.28;5071675;28;19928;-64
2022/04/11 02:32:52;;;;;;;20.42;13.57;;;10.20;99.90;;;10.29;58.50;101701.84;5071788;28;20059;-64
2022/04/11 02:35:20;;;;;;;20.55;13.63;;;10.10;99.90;;;10.25;58.98;101689.47;5055367;28;20079;-64
2022/04/11 02:37:49;;;;;;;17.73;13.85;;;10.10;99.90;;;10.32;58.85;101701.88;5055020;28;20045;-64
2022/04/11 02:40:18;;;;;;;19.02;13.32;;;10.10;99.90;;;10.28;58.79;101703.59;5071946;28;20052;-64
2022/04/11 02:43:20;;;;;;;18.67;13.90;;;10.00;99.90;;;10.27;58.73;101696.56;5061691;28;20076;-63
2022/04/11 02:45:54;;;;;;;19.33;13.18;;;10.10;99.90;;;10.19;58.77;101692.06;5055523;28;20102;-64
2022/04/11 02:48:30;;;;;;;18.92;13.18;;;10.00;99.90;;;10.14;58.75;101691.13;5055411;28;20131;-64
2022/04/11 02:51:10;;;;;;;20.23;13.63;;;10.00;99.90;;;10.21;58.98;101698.25;5055139;28;20048;-64
2022/04/11 02:53:44;;;;;;;18.00;13.90;;;10.00;99.90;;;10.23;58.81;101688.56;5055159;28;20048;-64
2022/04/11 02:56:13;;;;;;;17.83;13.95;;;10.00;99.90;;;9.98;58.70;101660.97;5055042;28;20052;-64
2022/04/11 02:58:43;;;;;;;18.92;14.23;;;10.00;99.90;;;10.14;58.78;101686.75;5055046;28;20375;-64
2022/04/11 03:01:12;;;;;;;24.42;14.40;;;9.90;99.90;;;9.99;59.04;101690.06;5055072;28;20059;-64
2022/04/11 03:03:43;;;;;;;22.67;14.70;;;9.90;99.90;;;9.98;59.49;101684.75;5055057;28;20061;-65
2022/04/11 03:06:12;;;;;;;23.02;14.85;;;9.70;99.90;;;9.64;59.47;101680.81;5054995;28;20055;-64
2022/04/11 03:08:43;;;;;;;20.40;14.93;;;9.50;99.90;;;9.79;60.14;101674.84;5054950;28;20055;-64
2022/04/11 03:11:15;;;;;;;19.25;14.48;;;9.60;99.90;;;9.78;59.68;101673.97;5055052;28;20048;-64
2022/04/11 03:13:49;;;;;;;23.98;15.00;;;9.60;99.90;;;9.63;60.04;101678.16;5054722;28;20052;-65
2022/04/11 03:16:19;;;;;;;22.73;15.00;;;9.40;99.90;;;9.58;60.21;101672.81;5071685;28;20044;-64
2022/04/11 03:18:49;;;;;;;21.75;15.23;;;9.40;99.90;;;9.64;60.40;101672.91;5054979;28;20049;-64
2022/04/11 03:21:19;;;;;;;21.00;15.25;;;9.40;99.90;;;9.64;60.31;101670.25;5054565;28;20075;-64
2022/04/11 03:23:55;;;;;;;20.83;15.18;;;9.50;99.90;;;9.59;60.51;101671.06;5054819;28;20135;-64
2022/04/11 03:26:23;;;;;;;21.90;14.68;;;9.40;99.90;;;9.65;60.74;101665.88;5054449;28;20044;-64
2022/04/11 03:28:53;;;;;;;24.42;15.13;;;9.40;99.90;;;9.71;60.27;101660.66;5055155;28;20048;-64
2022/04/11 03:31:22;;;;;;;22.45;16.15;;;9.50;99.90;;;9.75;60.29;101671.31;5058603;28;20054;-64
2022/04/11 03:33:50;;;;;;;22.90;16.25;;;9.50;99.90;;;9.79;59.96;101670.44;5058366;28;20552;-64
2022/04/11 03:36:20;;;;;;;21.10;14.88;;;9.60;99.90;;;9.77;59.98;101660.75;5058543;28;20155;-64
2022/04/11 03:38:48;;;;;;;21.90;15.15;;;9.60;99.90;;;9.79;59.84;101657.22;5058452;28;20401;-64
2022/04/11 03:41:19;;;;;;;20.23;15.90;;;9.60;99.90;;;9.80;60.34;101650.19;5058548;28;20052;-66
2022/04/11 03:43:48;;;;;;;20.17;15.05;;;9.60;99.90;;;9.87;59.80;101655.56;5075061;28;20093;-64
2022/04/11 03:46:18;;;;;;;23.08;15.57;;;9.60;99.90;;;9.76;59.78;101636.06;5074979;28;20045;-64
2022/04/11 03:48:46;;;;;;;23.02;15.35;;;9.60;99.90;;;9.85;60.18;101659.94;5074982;28;20098;-64
2022/04/11 03:51:15;;;;;;;21.88;15.68;;;9.60;99.90;;;9.84;60.10;101652.91;5058146;28;20063;-65
2022/04/11 03:53:44;;;;;;;23.42;15.77;;;9.60;99.90;;;9.85;59.68;101654.66;5058199;28;20044;-64
2022/04/11 03:56:14;;;;;;;24.75;15.95;;;9.60;99.90;;;9.81;59.49;101658.13;5076138;28;20470;-64
2022/04/11 03:58:43;;;;;;;24.17;16.45;;;9.60;99.90;;;9.73;60.11;101654.53;5058185;28;20498;-64
2022/04/11 04:01:13;;;;;;;23.23;16.48;;;9.60;99.90;;;9.60;60.13;101625.31;5057915;28;20504;-64
2022/04/11 04:03:43;;;;;;;21.50;15.27;;;9.60;99.90;;;9.78;59.87;101651.94;5075695;28;20040;-64
2022/04/11 04:06:12;;;;;;;;;;;9.60;99.90;;;9.59;59.73;101619.16;5058376;28;20045;-66
2022/04/11 04:08:44;;;;;;;25.00;16.73;;;9.60;99.90;;;9.74;59.66;101653.66;5057883;28;19921;-64
2022/04/11 04:11:25;;;;;;;21.58;15.65;;;9.60;99.90;;;9.72;60.07;101652.75;5057733;28;20051;-63
2022/04/11 04:14:14;;;;;;;23.83;16.33;;;9.50;99.90;;;9.68;60.29;101656.22;5075354;28;20064;-63
2022/04/11 04:16:47;;;;;;;24.50;17.25;;;9.50;99.90;;;9.68;60.10;101644.75;5057825;28;20055;-64
2022/04/11 04:19:20;;;;;;;22.25;16.50;;;9.50;99.90;;;9.65;60.06;101645.63;5057343;28;20078;-63
2022/04/11 04:21:50;;;;;;;26.20;16.88;;;9.50;99.90;;;9.63;60.20;101654.41;5057663;28;20512;-63
2022/04/11 04:24:22;;;;;;;21.80;16.73;;;9.40;99.90;;;9.58;60.22;101641.13;5074357;28;20044;-63
2022/04/11 04:26:53;;;;;;;24.42;16.92;;;9.40;99.90;;;9.60;60.81;101639.41;5057634;28;20118;-64
2022/04/11 04:29:21;;;;;;;23.80;16.67;;;9.40;99.90;;;9.55;61.06;101637.56;5057155;28;20072;-63
2022/04/11 04:31:54;;;;;;;21.45;16.38;;;9.30;99.90;;;9.50;60.82;101634.91;5057397;28;20044;-63
2022/04/11 04:34:25;;;;;;;24.48;18.40;;;9.30;99.90;;;9.58;60.72;101637.63;5057286;28;20402;-62
2022/04/11 04:36:55;;;;;;;21.10;16.48;;;9.30;99.90;;;9.36;60.62;101593.34;5057468;28;20045;-63
2022/04/11 04:39:24;;;;;;;19.58;15.82;;;9.40;99.90;;;9.56;60.44;101631.44;5057051;28;20513;-63
2022/04/11 04:41:53;;;;;;;27.52;17.02;;;9.30;99.90;;;9.45;60.48;101620.72;5057070;28;20055;-62
2022/04/11 04:44:24;;;;;;;22.65;16.75;;;9.30;99.90;;;9.52;60.67;101632.28;5057198;28;20053;-64
2022/04/11 04:46:57;;;;;;;22.48;16.10;;;9.40;99.90;;;9.09;60.59;101557.84;5057199;28;20044;-62
2022/04/11 04:49:33;;;;;;;21.98;16.95;;;9.40;99.90;;;9.49;60.71;101635.75;5074059;28;20048;-62
2022/04/11 04:52:06;;;;;;;21.60;16.05;;;9.30;99.90;;;9.51;60.59;101628.72;5057172;28;20498;-62
2022/04/11 04:54:40;;;;;;;28.50;18.38;;;9.30;99.90;;;9.46;60.78;101641.00;5057054;28;20170;-63
2022/04/11 04:57:09;;;;;;;23.42;16.52;;;9.30;99.90;;;9.46;61.10;101629.56;5057000;28;20082;-62
2022/04/11 04:59:37;;;;;;;23.60;16.75;;;9.30;99.90;;;9.48;60.96;101628.72;5056923;28;20080;-62
2022/04/11 05:02:12;;;;;;;21.90;16.40;;;9.30;99.90;;;9.47;61.26;101628.66;5056886;28;20051;-63
2022/04/11 05:04:43;;;;;;;22.67;16.80;;;9.30;99.90;;;9.44;60.86;101628.66;5056766;28;20139;-63
2022/04/11 05:07:11;;;;;;;20.27;16.55;;;9.30;99.90;;;9.50;60.65;101626.06;5056858;28;20052;-62
2022/04/11 05:09:42;;;;;;;24.40;17.50;;;9.30;99.90;;;9.48;61.16;101630.44;5056986;28;20486;-62
2022/04/11 05:12:11;;;;;;;21.92;16.48;;;9.30;99.90;;;9.46;61.23;101627.81;5056751;28;20044;-62
2022/04/11 05:14:40;;;;;;;23.95;17.13;;;9.30;99.90;;;9.46;60.96;101632.19;5074596;28;20036;-63
2022/04/11 05:17:13;;;;;;;22.85;16.33;;;9.30;99.90;;;9.49;61.20;101634.84;5056679;28;20045;-62
2022/04/11 05:19:43;;;;;;;23.80;17.15;;;9.20;99.90;;;9.54;60.86;101636.69;5056244;28;20105;-63
2022/04/11 05:22:15;;;;;;;23.60;16.35;;;9.30;99.90;;;9.53;60.56;101640.19;5073189;28;20052;-62
2022/04/11 05:24:44;;;;;;;20.85;16.80;;;9.30;99.90;;;9.54;61.06;101641.97;5074308;28;20115;-62
2022/04/11 05:27:12;;;;;;;23.67;16.20;;;9.30;99.90;;;9.55;61.60;101642.84;5056340;28;20044;-62
2022/04/11 05:29:41;;;;;;;22.40;16.85;;;9.30;99.90;;;9.56;60.69;101640.22;5056335;28;20045;-61
2022/04/11 05:32:10;;;;;;;22.33;16.40;;;9.40;99.90;;;9.62;61.35;101639.44;5056209;28;20044;-62
2022/04/11 05:34:39;;;;;;;23.25;16.30;;;9.40;99.90;;;9.68;60.78;101635.09;5073817;28;20584;-62
2022/04/11 05:37:09;;;;;;;25.15;17.90;;;9.40;99.90;;;9.33;60.82;101556.34;5056165;28;20504;-62
2022/04/11 05:39:37;;;;;;;22.50;15.95;;;9.50;99.90;;;9.80;60.69;101632.59;5073830;28;20064;-61
2022/04/11 05:42:07;;;;;;;23.90;16.67;;;9.60;99.90;;;9.45;60.71;101551.19;5073940;28;20049;-62
2022/04/11 05:44:38;;;;;;;27.95;18.67;;;9.70;99.90;;;9.99;60.80;101642.47;5056183;28;20115;-62
2022/04/11 05:47:07;;;;;;;24.83;17.60;;;9.80;99.90;;;10.10;60.50;101633.81;5055921;28;20098;-61
2022/04/11 05:49:43;;;;;;;22.30;16.08;;;9.90;99.90;;;10.37;59.79;101631.44;5055846;28;20054;-62
2022/04/11 05:52:16;;;;;;;21.95;17.65;;;10.10;99.90;;;10.56;59.40;101639.53;5072696;28;20067;-61
2022/04/11 05:54:45;;;;;;;22.83;16.58;;;10.30;99.90;;;10.77;58.95;101639.69;5072563;28;20458;-62
2022/04/11 05:57:14;;;;;;;20.27;16.30;;;10.50;99.90;;;10.31;58.10;101538.81;5072373;28;20048;-62
2022/04/11 05:59:42;;;;;;;19.50;15.57;;;10.60;99.90;;;11.16;57.93;101631.09;5073382;28;20098;-62
2022/04/11 06:02:11;;;;;;;20.25;15.70;;;10.80;99.90;;;11.33;56.99;101633.81;5073278;28;20036;-62
2022/04/11 06:04:41;;;;;;;19.40;16.08;;;11.00;99.90;;;11.41;56.38;101642.69;5055604;28;20556;-62
2022/04/11 06:07:10;;;;;;;22.38;17.40;;;11.10;99.90;;;11.54;56.24;101641.88;5055558;28;20091;-62
2022/04/11 06:09:42;;;;;;;19.50;16.52;;;11.30;99.90;;;11.68;55.69;101641.09;5055379;28;20421;-62
2022/04/11 06:12:17;;;;;;;21.13;15.73;;;11.40;99.90;;;11.67;55.13;101641.09;5055397;28;20048;-62
2022/04/11 06:14:46;;;;;;;20.83;15.82;;;11.50;99.90;;;11.70;54.89;101639.34;5073391;28;20060;-64
2022/04/11 06:17:15;;;;;;;20.38;17.42;;;11.50;99.90;;;11.55;55.40;101639.25;5073133;28;20052;-62
2022/04/11 06:19:43;;;;;;;22.27;16.13;;;11.30;99.90;;;11.47;55.82;101645.38;5071925;28;20045;-62
2022/04/11 06:22:12;;;;;;;19.40;15.35;;;11.20;99.90;;;10.84;56.12;101554.16;5073303;28;20098;-62
2022/04/11 06:24:48;;;;;;;19.92;15.68;;;11.10;99.90;;;11.53;55.95;101638.34;5055142;28;20068;-62
2022/04/11 06:27:18;;;;;;;27.10;16.63;;;11.20;99.90;;;11.50;55.50;101625.06;5055103;28;20056;-62
2022/04/11 06:29:47;;;;;;;22.50;17.13;;;11.40;99.90;;;11.50;56.13;101646.28;5055462;28;20048;-62
2022/04/11 06:32:16;;;;;;;25.25;15.80;;;11.20;99.90;;;11.70;56.08;101649.94;5055000;28;20131;-62
2022/04/11 06:34:44;;;;;;;22.35;17.08;;;11.40;99.90;;;11.20;57.59;101642.59;5072001;28;20139;-62
2022/04/11 06:37:13;;;;;;;24.48;16.63;;;11.00;99.90;;;11.22;57.60;101641.75;5073311;28;20082;-62
2022/04/11 06:39:42;;;;;;;22.55;16.17;;;10.90;99.90;;;10.98;58.06;101640.69;5055159;28;20055;-62
2022/04/11 06:42:13;;;;;;;25.73;17.63;;;10.80;99.90;;;11.14;58.69;101638.16;5055179;28;20095;-62
2022/04/11 06:44:43;;;;;;;25.70;17.70;;;10.80;99.90;;;10.88;58.58;101634.44;5055135;28;20057;-61
2022/04/11 06:47:14;;;;;;;21.35;16.00;;;10.60;99.90;;;10.86;58.78;101636.19;5055240;28;20533;-61
2022/04/11 06:49:42;;;;;;;22.30;17.02;;;10.60;99.90;;;10.87;60.09;101636.22;5055046;28;20067;-62
2022/04/11 06:52:11;;;;;;;22.10;16.98;;;10.50;99.90;;;10.83;59.75;101628.25;5072725;28;20406;-63
2022/04/11 06:54:39;;;;;;;24.45;16.40;;;10.50;99.90;;;10.93;59.63;101632.75;5072913;28;20071;-62
2022/04/11 06:57:08;;;;;;;24.67;17.20;;;10.60;99.90;;;11.11;59.97;101626.66;5072937;28;20041;-61
2022/04/11 06:59:38;;;;;;;27.63;16.50;;;10.80;99.90;;;10.64;61.16;101621.97;5072949;28;20048;-61
2022/04/11 07:02:06;;;;;;;23.90;16.17;;;10.40;99.90;;;10.62;62.09;101613.13;5072682;28;20051;-62
2022/04/11 07:04:36;;;;;;;20.80;16.63;;;10.30;99.90;;;10.36;61.53;101621.69;5076426;28;20279;-62
2022/04/11 07:07:05;;;;;;;23.08;16.60;;;10.20;99.90;;;10.22;61.79;101624.22;5077023;28;20057;-62
2022/04/11 07:09:36;;;;;;;25.23;17.83;;;10.00;99.90;;;10.25;63.14;101623.38;5076609;28;20436;-61
2022/04/11 07:12:06;;;;;;;25.88;17.23;;;9.90;99.90;;;10.38;62.96;101609.38;5076521;28;20070;-62
2022/04/11 07:14:36;;;;;;;23.05;15.93;;;10.00;99.90;;;10.20;62.76;101588.09;5076678;28;20041;-62
2022/04/11 07:17:07;;;;;;;18.20;14.00;;;10.10;99.90;;;10.32;61.70;101610.22;5076575;28;20119;-62
2022/04/11 07:19:35;;;;;;;23.58;15.10;;;10.10;99.90;;;10.59;62.59;101614.84;5076548;28;20464;-64
2022/04/11 07:22:05;;;;;;;25.05;16.25;;;10.20;99.90;;;10.21;61.89;101526.41;5076220;28;20072;-62
2022/04/11 07:24:33;;;;;;;21.63;15.82;;;10.40;99.90;;;10.80;59.98;101622.97;5075976;28;20044;-62
2022/04/11 07:27:01;;;;;;;22.33;15.20;;;10.50;99.90;;;11.00;60.81;101605.41;5075795;28;20119;-62
2022/04/11 07:29:30;;;;;;;16.27;13.18;;;10.70;99.90;;;11.06;59.32;101613.41;5076455;28;20045;-62
2022/04/11 07:31:59;;;;;;;18.95;12.73;;;10.70;99.90;;;11.33;59.61;101615.28;5076082;28;20049;-62
2022/04/11 07:34:28;;;;;;;17.88;12.00;;;11.00;99.90;;;11.37;57.38;101617.97;5075818;28;20109;-62
2022/04/11 07:36:56;;;;;;;19.58;11.88;;;11.00;99.90;;;11.52;58.02;101618.03;5075905;28;20048;-62
2022/04/11 07:39:25;;;;;;;14.75;11.90;;;11.20;99.90;;;11.40;54.84;101607.38;5076241;28;20071;-62
2022/04/11 07:41:54;;;;;;;20.25;11.05;;;11.20;99.90;;;11.63;54.24;101604.81;5076166;28;20048;-65
2022/04/11 07:44:22;;;;;;;21.55;11.65;;;11.30;99.90;;;11.61;56.04;101599.50;5075905;28;20075;-57
2022/04/11 07:46:50;;;;;;;15.10;10.43;;;11.40;99.90;;;11.92;54.87;101605.81;5075841;28;20048;-57
2022/04/11 07:49:20;;;;;;;17.13;10.48;;;11.60;99.90;;;11.82;52.71;101582.81;5076097;28;20401;-57
2022/04/11 07:51:49;;;;;;;14.15;8.93;;;11.70;99.90;;;12.20;52.98;101593.44;5076094;28;20052;-57
2022/04/11 07:54:17;;;;;;;16.80;10.80;;;11.90;99.90;;;12.17;51.71;101582.84;5075616;28;20041;-58
2022/04/11 07:56:46;;;;;;;13.02;9.07;;;11.90;99.90;;;12.59;52.35;101596.09;5075732;28;20411;-59
2022/04/11 07:59:15;;;;;;;14.70;9.50;;;12.20;99.90;;;12.55;50.26;101594.34;5075491;28;20094;-59
2022/04/11 08:01:44;;;;;;;12.30;8.70;;;12.30;99.90;;;12.74;49.79;101617.31;5074098;28;20139;-58
2022/04/11 08:04:13;;;;;;;15.45;9.70;;;12.50;99.90;;;12.62;48.05;101596.09;5075519;28;20114;-59
2022/04/11 08:06:43;;;;;;;14.85;9.00;;;12.40;99.90;;;12.31;49.92;101502.38;5075607;28;20114;-58
2022/04/11 08:09:11;;;;;;;14.63;9.53;;;12.50;99.90;;;12.96;49.12;101597.81;5075646;28;20067;-58
2022/04/11 08:11:40;;;;;;;10.93;9.18;;;12.70;99.90;;;12.75;48.92;101573.06;5075039;28;20076;-58
2022/04/11 08:14:08;;;;;;;15.77;9.25;;;12.60;99.90;;;12.80;49.36;101590.75;5075564;28;20044;-58
2022/04/11 08:16:37;;;;;;;12.18;7.90;;;12.60;99.90;;;12.94;47.10;101604.91;5075024;28;20123;-58
2022/04/11 08:19:06;;;;;;;12.52;8.98;;;12.70;99.90;;;13.13;48.29;101606.66;5075277;28;20055;-59
2022/04/11 08:21:34;;;;;;;13.30;8.00;;;12.80;99.90;;;13.01;48.60;101604.00;5075327;28;20119;-59
2022/04/11 08:24:05;;;;;;;12.75;8.98;;;12.80;99.90;;;13.13;48.40;101592.47;5075403;28;20044;-65
2022/04/11 08:26:33;;;;;;;15.15;9.48;;;12.90;99.90;;;13.55;48.13;101602.94;5075401;28;20048;-59
2022/04/11 08:29:02;;;;;;;11.50;7.72;;;13.20;99.90;;;13.46;46.00;101595.00;5075135;28;20037;-59
2022/04/11 08:31:30;;;;;;;15.13;8.50;;;13.20;99.90;;;13.48;45.89;101591.47;5075295;28;20107;-58
2022/04/11 08:33:59;;;;;;;11.70;7.90;;;13.30;99.90;;;13.69;45.58;101605.50;5075144;28;20056;-59
2022/04/11 08:36:27;;;;;;;12.13;7.40;;;13.50;99.90;;;13.82;46.60;101597.47;5074915;28;20072;-59
2022/04/11 08:38:56;;;;;;;12.32;7.72;;;13.50;99.90;;;13.71;46.37;101596.66;5075183;28;20556;-59
2022/04/11 08:41:33;;;;;;;10.07;8.07;;;13.40;99.90;;;13.70;44.54;101596.66;5074834;28;20033;-60
2022/04/11 08:44:04;;;;;;;12.70;8.90;;;13.50;99.90;;;13.38;47.55;101535.69;5057062;28;20389;-60
2022/04/11 08:46:34;;;;;;;13.73;7.90;;;13.50;99.90;;;13.75;46.21;101598.41;5074612;28;20107;-60
2022/04/11 08:49:06;;;;;;;9.07;7.07;;;13.50;99.90;;;13.73;46.60;101602.84;5074172;28;20044;-60
2022/04/11 08:51:37;;;;;;;13.30;8.00;;;13.50;99.90;;;13.73;45.89;101583.34;5074295;28;20570;-60
2022/04/11 08:54:06;;;;;;;;;;;13.50;99.90;;;13.74;45.69;101579.81;5074637;28;20052;-60
2022/04/11 08:56:36;;;;;;;11.40;7.85;;;13.50;99.90;;;13.74;45.07;101577.16;5074628;28;20328;-60
2022/04/11 08:59:04;;;;;;;14.43;8.25;;;13.50;99.90;;;13.78;44.72;101570.91;5074701;28;20095;-64
2022/04/11 09:01:35;;;;;;;12.95;8.52;;;13.60;99.90;;;13.79;45.66;101589.53;5074473;28;20119;-66
2022/04/11 09:04:04;;;;;;;11.32;7.05;;;13.60;99.90;;;13.81;45.21;101577.09;5074748;28;20032;-67
2022/04/11 09:06:35;;;;;;;11.00;8.18;;;13.60;99.90;;;13.93;45.11;101565.50;5075495;28;20452;-66
2022/04/11 09:09:05;;;;;;;15.18;6.90;;;13.70;99.90;;;13.87;44.50;101573.50;5074443;28;20036;-66
2022/04/11 09:11:37;;;;;;;9.73;7.53;;;13.60;99.90;;;14.16;44.83;101558.22;5074424;28;20468;-66
2022/04/11 09:14:08;;;;;;;13.02;7.72;;;13.80;99.90;;;14.27;44.79;101559.00;5074375;28;20048;-66
2022/04/11 09:16:51;;;;;;;;;;;14.00;99.90;;;13.35;46.86;101555.22;5075113;28;20087;-66
2022/04/11 09:19:22;;;;;;;9.95;6.68;;;13.40;99.90;;;13.23;46.31;101549.94;5074274;28;19959;-67
2022/04/11 09:22:10;;;;;;;7.32;6.47;;;13.00;99.90;;;13.02;44.60;101552.66;5074189;28;20045;-66
2022/04/11 09:24:39;;;;;;;9.82;7.20;;;12.90;99.90;;;13.12;45.65;101545.56;5074367;28;20047;-66
2022/04/11 09:27:09;;;;;;;9.88;6.80;;;12.90;99.90;;;13.43;46.05;101548.06;5074344;28;20074;-66
2022/04/11 09:29:44;;;;;;;11.68;6.32;;;13.10;99.90;;;13.53;45.82;101556.88;5074025;28;20040;-66
2022/04/11 09:32:12;;;;;;;12.05;7.40;;;13.20;99.90;;;13.72;45.41;101555.91;5073867;28;20037;-66
2022/04/11 09:34:41;;;;;;;10.68;6.65;;;13.40;99.90;;;13.52;44.89;101558.66;5074254;28;20058;-66
2022/04/11 09:37:10;;;;;;;10.27;7.07;;;13.30;99.90;;;13.48;46.42;101554.25;5073858;28;20395;-66
2022/04/11 09:39:43;;;;;;;13.00;6.88;;;13.30;99.90;;;13.80;45.97;101554.03;5074036;28;20090;-66
2022/04/11 09:42:13;;;;;;;11.68;7.10;;;13.50;99.90;;;13.83;44.10;101564.69;5074050;28;20048;-66
2022/04/11 09:44:42;;;;;;;10.05;7.00;;;13.60;99.90;;;13.23;44.61;101527.81;5056012;28;20048;-66
2022/04/11 09:47:30;;;;;;;10.60;6.95;;;13.30;99.90;;;13.40;44.44;101544.53;5073958;28;20131;-66
2022/04/11 09:50:00;;;;;;;9.77;6.75;;;13.20;99.90;;;13.72;46.65;101542.59;5073955;28;20041;-66
2022/04/11 09:52:29;;;;;;;11.73;6.78;;;13.40;99.90;;;13.77;43.81;101521.28;5073404;28;20460;-66
2022/04/11 09:54:59;;;;;;;12.13;7.03;;;13.60;99.90;;;13.75;43.91;101517.75;5055613;28;20053;-66
2022/04/11 09:57:32;;;;;;;12.02;7.05;;;13.60;99.90;;;13.53;43.98;101541.81;5073837;28;20040;-66
2022/04/11 10:00:04;;;;;;;10.63;6.97;;;13.40;99.90;;;13.25;42.53;101537.53;5073481;28;20102;-66
2022/04/11 10:02:44;;;;;;;9.30;7.88;;;13.10;99.90;;;13.34;43.27;101534.81;5073483;28;20459;-66
2022/04/11 10:05:13;;;;;;;11.48;8.13;;;13.00;99.90;;;13.51;43.98;101548.91;5073652;28;20055;-66
2022/04/11 10:07:42;;;;;;;14.48;7.72;;;13.20;99.90;;;13.61;44.38;101516.97;5055254;28;20041;-66
2022/04/11 10:10:14;;;;;;;9.52;7.20;;;13.40;99.90;;;13.54;44.25;101548.00;5073192;28;20075;-66
2022/04/11 10:12:43;;;;;;;10.38;7.45;;;13.30;99.90;;;13.85;44.07;101530.09;5055562;28;20072;-66
2022/04/11 10:15:12;;;;;;;7.57;6.53;;;13.50;99.90;;;14.05;46.27;101529.03;5055581;28;20045;-66
2022/04/11 10:17:40;;;;;;;10.02;7.05;;;13.80;99.90;;;13.53;43.28;101536.50;5073200;28;20098;-66
2022/04/11 10:20:10;;;;;;;12.18;7.40;;;13.40;99.90;;;13.22;44.81;101473.78;5073447;28;20070;-66